sensor_id;sensor_type;location;lat;lon;timestamp;P1;durP1;ratioP1;P2;durP2;ratioP2
64487;SDS011;50864;45.050;39.014;2023-06-10T00:01:27;15.35;;;3.35;;
64487;SDS011;50864;45.050;39.014;2023-06-10T00:03:54;14.10;;;4.43;;
64487;SDS011;50864;45.050;39.014;2023-06-10T00:06:20;16.15;;;5.05;;
64487;SDS011;50864;45.050;39.014;2023-06-10T00:08:47;8.52;;;3.20;;
64487;SDS011;50864;45.050;39.014;2023-06-10T00:11:13;14.57;;;3.08;;
64487;SDS011;50864;45.050;39.014;2023-06-10T00:13:39;14.50;;;3.42;;
64487;SDS011;50864;45.050;39.014;2023-06-10T00:16:05;14.18;;;3.10;;
64487;SDS011;50864;45.050;39.014;2023-06-10T00:18:31;16.42;;;3.60;;
64487;SDS011;50864;45.050;39.014;2023-06-10T00:20:57;11.73;;;3.05;;
64487;SDS011;50864;45.050;39.014;2023-06-10T00:23:28;12.18;;;4.18;;
64487;SDS011;50864;45.050;39.014;2023-06-10T00:25:57;14.70;;;3.65;;
64487;SDS011;50864;45.050;39.014;2023-06-10T00:28:23;20.52;;;3.80;;
64487;SDS011;50864;45.050;39.014;2023-06-10T00:30:49;15.77;;;3.25;;
64487;SDS011;50864;45.050;39.014;2023-06-10T00:33:17;12.95;;;3.28;;
64487;SDS011;50864;45.050;39.014;2023-06-10T00:35:43;19.58;;;3.65;;
64487;SDS011;50864;45.050;39.014;2023-06-10T00:38:09;14.38;;;3.35;;
64487;SDS011;50864;45.050;39.014;2023-06-10T00:40:41;17.90;;;3.53;;
64487;SDS011;50864;45.050;39.014;2023-06-10T00:43:07;14.02;;;3.05;;
64487;SDS011;50864;45.050;39.014;2023-06-10T00:45:33;14.65;;;3.40;;
64487;SDS011;50864;45.050;39.014;2023-06-10T00:47:59;6.20;;;2.75;;
64487;SDS011;50864;45.050;39.014;2023-06-10T00:50:25;13.18;;;3.33;;
64487;SDS011;50864;45.050;39.014;2023-06-10T00:52:51;16.00;;;4.05;;
64487;SDS011;50864;45.050;39.014;2023-06-10T00:55:18;11.02;;;2.95;;
64487;SDS011;50864;45.050;39.014;2023-06-10T00:57:44;17.08;;;3.33;;
64487;SDS011;50864;45.050;39.014;2023-06-10T01:00:10;13.73;;;2.95;;
64487;SDS011;50864;45.050;39.014;2023-06-10T01:02:36;10.20;;;2.78;;
64487;SDS011;50864;45.050;39.014;2023-06-10T01:05:02;14.05;;;3.85;;
64487;SDS011;50864;45.050;39.014;2023-06-10T01:08:32;19.90;;;3.33;;
64487;SDS011;50864;45.050;39.014;2023-06-10T01:13:10;17.30;;;3.25;;
64487;SDS011;50864;45.050;39.014;2023-06-10T01:15:37;18.62;;;3.53;;
64487;SDS011;50864;45.050;39.014;2023-06-10T01:18:08;12.82;;;3.12;;
64487;SDS011;50864;45.050;39.014;2023-06-10T01:20:35;13.40;;;3.78;;
64487;SDS011;50864;45.050;39.014;2023-06-10T01:23:02;20.42;;;3.80;;
64487;SDS011;50864;45.050;39.014;2023-06-10T01:25:29;14.50;;;3.45;;
64487;SDS011;50864;45.050;39.014;2023-06-10T01:27:57;10.20;;;2.80;;
64487;SDS011;50864;45.050;39.014;2023-06-10T01:30:27;15.75;;;3.20;;
64487;SDS011;50864;45.050;39.014;2023-06-10T01:32:55;14.27;;;3.28;;
64487;SDS011;50864;45.050;39.014;2023-06-10T01:35:22;21.70;;;2.97;;
64487;SDS011;50864;45.050;39.014;2023-06-10T01:37:50;9.57;;;2.35;;
64487;SDS011;50864;45.050;39.014;2023-06-10T01:40:18;14.60;;;3.25;;
64487;SDS011;50864;45.050;39.014;2023-06-10T01:42:45;16.80;;;3.67;;
64487;SDS011;50864;45.050;39.014;2023-06-10T01:45:11;15.15;;;3.30;;
64487;SDS011;50864;45.050;39.014;2023-06-10T01:47:37;14.10;;;3.50;;
64487;SDS011;50864;45.050;39.014;2023-06-10T01:50:03;20.77;;;3.58;;
64487;SDS011;50864;45.050;39.014;2023-06-10T01:52:29;15.80;;;3.25;;
64487;SDS011;50864;45.050;39.014;2023-06-10T01:54:54;11.63;;;3.15;;
64487;SDS011;50864;45.050;39.014;2023-06-10T01:57:20;14.90;;;4.03;;
64487;SDS011;50864;45.050;39.014;2023-06-10T01:59:46;11.23;;;2.85;;
64487;SDS011;50864;45.050;39.014;2023-06-10T02:02:12;21.73;;;3.42;;
64487;SDS011;50864;45.050;39.014;2023-06-10T02:04:38;10.25;;;2.97;;
64487;SDS011;50864;45.050;39.014;2023-06-10T02:07:03;14.85;;;3.08;;
64487;SDS011;50864;45.050;39.014;2023-06-10T02:09:31;15.95;;;3.30;;
64487;SDS011;50864;45.050;39.014;2023-06-10T02:11:57;14.90;;;3.00;;
64487;SDS011;50864;45.050;39.014;2023-06-10T02:14:23;11.25;;;2.78;;
64487;SDS011;50864;45.050;39.014;2023-06-10T02:16:49;12.82;;;3.17;;
64487;SDS011;50864;45.050;39.014;2023-06-10T02:19:16;14.07;;;3.45;;
64487;SDS011;50864;45.050;39.014;2023-06-10T02:21:42;14.32;;;3.17;;
64487;SDS011;50864;45.050;39.014;2023-06-10T02:24:08;15.48;;;3.55;;
64487;SDS011;50864;45.050;39.014;2023-06-10T02:26:34;11.43;;;2.78;;
64487;SDS011;50864;45.050;39.014;2023-06-10T02:29:01;11.73;;;3.03;;
64487;SDS011;50864;45.050;39.014;2023-06-10T02:31:27;13.65;;;3.90;;
64487;SDS011;50864;45.050;39.014;2023-06-10T02:33:54;15.52;;;3.37;;
64487;SDS011;50864;45.050;39.014;2023-06-10T02:36:21;20.15;;;4.93;;
64487;SDS011;50864;45.050;39.014;2023-06-10T02:38:49;11.93;;;3.20;;
64487;SDS011;50864;45.050;39.014;2023-06-10T02:41:16;15.75;;;3.55;;
64487;SDS011;50864;45.050;39.014;2023-06-10T02:43:42;11.05;;;3.10;;
64487;SDS011;50864;45.050;39.014;2023-06-10T02:46:09;16.37;;;4.18;;
64487;SDS011;50864;45.050;39.014;2023-06-10T02:48:41;12.07;;;2.97;;
64487;SDS011;50864;45.050;39.014;2023-06-10T02:51:09;17.75;;;3.70;;
64487;SDS011;50864;45.050;39.014;2023-06-10T02:53:35;13.77;;;3.20;;
64487;SDS011;50864;45.050;39.014;2023-06-10T02:56:02;19.42;;;3.53;;
64487;SDS011;50864;45.050;39.014;2023-06-10T02:58:28;15.00;;;3.53;;
64487;SDS011;50864;45.050;39.014;2023-06-10T03:00:54;12.00;;;3.42;;
64487;SDS011;50864;45.050;39.014;2023-06-10T03:03:20;13.15;;;3.15;;
64487;SDS011;50864;45.050;39.014;2023-06-10T03:05:48;15.18;;;3.12;;
64487;SDS011;50864;45.050;39.014;2023-06-10T03:08:14;16.25;;;3.28;;
64487;SDS011;50864;45.050;39.014;2023-06-10T03:10:41;14.90;;;3.50;;
64487;SDS011;50864;45.050;39.014;2023-06-10T03:13:07;16.45;;;3.17;;
64487;SDS011;50864;45.050;39.014;2023-06-10T03:15:35;15.10;;;3.67;;
64487;SDS011;50864;45.050;39.014;2023-06-10T03:18:03;12.18;;;3.22;;
64487;SDS011;50864;45.050;39.014;2023-06-10T03:20:29;18.37;;;4.07;;
64487;SDS011;50864;45.050;39.014;2023-06-10T03:22:55;13.35;;;3.40;;
64487;SDS011;50864;45.050;39.014;2023-06-10T03:25:21;17.73;;;3.90;;
64487;SDS011;50864;45.050;39.014;2023-06-10T03:27:48;16.02;;;3.28;;
64487;SDS011;50864;45.050;39.014;2023-06-10T03:30:14;13.23;;;3.47;;
64487;SDS011;50864;45.050;39.014;2023-06-10T03:32:50;17.50;;;3.50;;
64487;SDS011;50864;45.050;39.014;2023-06-10T03:35:16;15.38;;;3.42;;
64487;SDS011;50864;45.050;39.014;2023-06-10T03:37:43;22.23;;;4.85;;
64487;SDS011;50864;45.050;39.014;2023-06-10T03:40:09;15.32;;;3.92;;
64487;SDS011;50864;45.050;39.014;2023-06-10T03:42:36;18.45;;;3.47;;
64487;SDS011;50864;45.050;39.014;2023-06-10T03:45:05;16.55;;;3.67;;
64487;SDS011;50864;45.050;39.014;2023-06-10T03:47:34;11.73;;;3.50;;
64487;SDS011;50864;45.050;39.014;2023-06-10T03:50:02;21.37;;;4.82;;
64487;SDS011;50864;45.050;39.014;2023-06-10T03:52:29;18.48;;;5.32;;
64487;SDS011;50864;45.050;39.014;2023-06-10T03:54:56;19.85;;;4.25;;
64487;SDS011;50864;45.050;39.014;2023-06-10T03:57:24;11.35;;;3.17;;
64487;SDS011;50864;45.050;39.014;2023-06-10T03:59:50;19.70;;;3.90;;
64487;SDS011;50864;45.050;39.014;2023-06-10T04:02:16;15.93;;;4.80;;
64487;SDS011;50864;45.050;39.014;2023-06-10T04:04:42;11.40;;;3.67;;
64487;SDS011;50864;45.050;39.014;2023-06-10T04:07:08;13.50;;;3.70;;
64487;SDS011;50864;45.050;39.014;2023-06-10T04:09:35;18.95;;;3.62;;
64487;SDS011;50864;45.050;39.014;2023-06-10T04:12:04;15.98;;;4.43;;
64487;SDS011;50864;45.050;39.014;2023-06-10T04:14:32;14.23;;;3.67;;
64487;SDS011;50864;45.050;39.014;2023-06-10T04:16:58;17.15;;;3.20;;
64487;SDS011;50864;45.050;39.014;2023-06-10T04:19:26;19.85;;;3.58;;
64487;SDS011;50864;45.050;39.014;2023-06-10T04:21:54;14.45;;;3.70;;
64487;SDS011;50864;45.050;39.014;2023-06-10T04:24:19;13.43;;;3.50;;
64487;SDS011;50864;45.050;39.014;2023-06-10T04:26:45;14.50;;;3.55;;
64487;SDS011;50864;45.050;39.014;2023-06-10T04:29:12;16.58;;;3.70;;
64487;SDS011;50864;45.050;39.014;2023-06-10T04:31:38;12.57;;;3.83;;
64487;SDS011;50864;45.050;39.014;2023-06-10T04:34:04;9.20;;;3.30;;
64487;SDS011;50864;45.050;39.014;2023-06-10T04:36:31;14.60;;;3.83;;
64487;SDS011;50864;45.050;39.014;2023-06-10T04:38:56;18.95;;;4.20;;
64487;SDS011;50864;45.050;39.014;2023-06-10T04:41:26;16.73;;;3.55;;
64487;SDS011;50864;45.050;39.014;2023-06-10T04:43:52;12.88;;;3.87;;
64487;SDS011;50864;45.050;39.014;2023-06-10T04:46:20;11.88;;;3.47;;
64487;SDS011;50864;45.050;39.014;2023-06-10T04:48:47;10.63;;;4.00;;
64487;SDS011;50864;45.050;39.014;2023-06-10T04:51:13;10.50;;;4.03;;
64487;SDS011;50864;45.050;39.014;2023-06-10T04:53:39;15.32;;;3.50;;
64487;SDS011;50864;45.050;39.014;2023-06-10T04:56:05;18.50;;;4.05;;
64487;SDS011;50864;45.050;39.014;2023-06-10T04:58:33;10.13;;;3.50;;
64487;SDS011;50864;45.050;39.014;2023-06-10T05:00:58;11.35;;;3.20;;
64487;SDS011;50864;45.050;39.014;2023-06-10T05:03:26;13.75;;;3.70;;
64487;SDS011;50864;45.050;39.014;2023-06-10T05:05:51;13.35;;;4.30;;
64487;SDS011;50864;45.050;39.014;2023-06-10T05:08:17;9.35;;;2.75;;
64487;SDS011;50864;45.050;39.014;2023-06-10T05:10:43;11.82;;;3.37;;
64487;SDS011;50864;45.050;39.014;2023-06-10T05:13:09;13.25;;;3.45;;
64487;SDS011;50864;45.050;39.014;2023-06-10T05:15:35;15.30;;;3.28;;
64487;SDS011;50864;45.050;39.014;2023-06-10T05:18:01;13.18;;;3.40;;
64487;SDS011;50864;45.050;39.014;2023-06-10T05:20:30;12.25;;;3.45;;
64487;SDS011;50864;45.050;39.014;2023-06-10T05:22:55;12.13;;;3.42;;
64487;SDS011;50864;45.050;39.014;2023-06-10T05:25:21;7.72;;;2.90;;
64487;SDS011;50864;45.050;39.014;2023-06-10T05:27:47;11.52;;;3.25;;
64487;SDS011;50864;45.050;39.014;2023-06-10T05:30:13;10.43;;;3.17;;
64487;SDS011;50864;45.050;39.014;2023-06-10T05:32:39;11.20;;;3.85;;
64487;SDS011;50864;45.050;39.014;2023-06-10T05:35:04;10.85;;;3.28;;
64487;SDS011;50864;45.050;39.014;2023-06-10T05:37:33;15.43;;;3.78;;
64487;SDS011;50864;45.050;39.014;2023-06-10T05:39:59;14.80;;;3.72;;
64487;SDS011;50864;45.050;39.014;2023-06-10T05:42:24;12.70;;;3.50;;
64487;SDS011;50864;45.050;39.014;2023-06-10T05:44:50;11.80;;;3.33;;
64487;SDS011;50864;45.050;39.014;2023-06-10T05:47:16;9.13;;;3.30;;
64487;SDS011;50864;45.050;39.014;2023-06-10T05:49:42;14.85;;;3.72;;
64487;SDS011;50864;45.050;39.014;2023-06-10T05:52:08;14.40;;;3.67;;
64487;SDS011;50864;45.050;39.014;2023-06-10T05:54:34;14.38;;;4.03;;
64487;SDS011;50864;45.050;39.014;2023-06-10T05:56:59;9.98;;;3.17;;
64487;SDS011;50864;45.050;39.014;2023-06-10T05:59:25;13.77;;;4.20;;
64487;SDS011;50864;45.050;39.014;2023-06-10T06:01:51;26.65;;;4.15;;
64487;SDS011;50864;45.050;39.014;2023-06-10T06:04:17;10.77;;;4.40;;
64487;SDS011;50864;45.050;39.014;2023-06-10T06:06:43;11.60;;;4.07;;
64487;SDS011;50864;45.050;39.014;2023-06-10T06:09:08;10.85;;;3.55;;
64487;SDS011;50864;45.050;39.014;2023-06-10T06:11:34;17.50;;;3.40;;
64487;SDS011;50864;45.050;39.014;2023-06-10T06:14:01;13.38;;;3.72;;
64487;SDS011;50864;45.050;39.014;2023-06-10T06:16:26;18.00;;;3.75;;
64487;SDS011;50864;45.050;39.014;2023-06-10T06:18:52;14.13;;;3.80;;
64487;SDS011;50864;45.050;39.014;2023-06-10T06:21:18;13.75;;;3.70;;
64487;SDS011;50864;45.050;39.014;2023-06-10T06:23:43;13.98;;;3.80;;
64487;SDS011;50864;45.050;39.014;2023-06-10T06:26:10;13.90;;;3.75;;
64487;SDS011;50864;45.050;39.014;2023-06-10T06:28:35;11.80;;;4.57;;
64487;SDS011;50864;45.050;39.014;2023-06-10T06:31:01;11.57;;;3.83;;
64487;SDS011;50864;45.050;39.014;2023-06-10T06:33:27;12.85;;;3.80;;
64487;SDS011;50864;45.050;39.014;2023-06-10T06:35:53;9.30;;;3.55;;
64487;SDS011;50864;45.050;39.014;2023-06-10T06:38:19;13.35;;;3.60;;
64487;SDS011;50864;45.050;39.014;2023-06-10T06:40:45;12.00;;;4.32;;
64487;SDS011;50864;45.050;39.014;2023-06-10T06:43:10;10.35;;;3.85;;
64487;SDS011;50864;45.050;39.014;2023-06-10T06:45:36;15.60;;;4.07;;
64487;SDS011;50864;45.050;39.014;2023-06-10T06:48:02;13.25;;;3.70;;
64487;SDS011;50864;45.050;39.014;2023-06-10T06:50:28;15.27;;;3.83;;
64487;SDS011;50864;45.050;39.014;2023-06-10T06:52:54;12.57;;;4.22;;
64487;SDS011;50864;45.050;39.014;2023-06-10T06:55:20;12.23;;;3.87;;
64487;SDS011;50864;45.050;39.014;2023-06-10T06:57:45;13.07;;;4.05;;
64487;SDS011;50864;45.050;39.014;2023-06-10T07:00:12;9.80;;;3.87;;
64487;SDS011;50864;45.050;39.014;2023-06-10T07:02:38;13.18;;;3.92;;
64487;SDS011;50864;45.050;39.014;2023-06-10T07:05:04;14.82;;;3.83;;
64487;SDS011;50864;45.050;39.014;2023-06-10T07:07:30;11.12;;;3.70;;
64487;SDS011;50864;45.050;39.014;2023-06-10T07:09:56;12.73;;;3.90;;
64487;SDS011;50864;45.050;39.014;2023-06-10T07:12:22;9.23;;;4.72;;
64487;SDS011;50864;45.050;39.014;2023-06-10T07:14:49;8.10;;;4.05;;
64487;SDS011;50864;45.050;39.014;2023-06-10T07:17:17;11.40;;;3.53;;
64487;SDS011;50864;45.050;39.014;2023-06-10T07:19:43;19.70;;;4.05;;
64487;SDS011;50864;45.050;39.014;2023-06-10T07:22:09;11.95;;;3.85;;
64487;SDS011;50864;45.050;39.014;2023-06-10T07:24:35;15.30;;;3.95;;
64487;SDS011;50864;45.050;39.014;2023-06-10T07:27:00;12.37;;;4.20;;
64487;SDS011;50864;45.050;39.014;2023-06-10T07:29:26;11.95;;;3.78;;
64487;SDS011;50864;45.050;39.014;2023-06-10T07:31:52;11.30;;;3.53;;
64487;SDS011;50864;45.050;39.014;2023-06-10T07:34:18;17.60;;;4.57;;
64487;SDS011;50864;45.050;39.014;2023-06-10T07:36:44;15.18;;;4.37;;
64487;SDS011;50864;45.050;39.014;2023-06-10T07:39:10;12.73;;;4.40;;
64487;SDS011;50864;45.050;39.014;2023-06-10T07:41:36;15.75;;;4.28;;
64487;SDS011;50864;45.050;39.014;2023-06-10T07:44:02;11.48;;;4.80;;
64487;SDS011;50864;45.050;39.014;2023-06-10T07:46:28;14.10;;;4.62;;
64487;SDS011;50864;45.050;39.014;2023-06-10T07:48:54;13.27;;;4.47;;
64487;SDS011;50864;45.050;39.014;2023-06-10T07:51:20;16.87;;;4.40;;
64487;SDS011;50864;45.050;39.014;2023-06-10T07:53:46;14.95;;;4.37;;
64487;SDS011;50864;45.050;39.014;2023-06-10T07:56:11;12.02;;;4.40;;
64487;SDS011;50864;45.050;39.014;2023-06-10T07:58:37;10.55;;;4.97;;
64487;SDS011;50864;45.050;39.014;2023-06-10T08:01:03;10.23;;;4.60;;
64487;SDS011;50864;45.050;39.014;2023-06-10T08:03:29;13.52;;;4.85;;
64487;SDS011;50864;45.050;39.014;2023-06-10T08:05:55;15.10;;;5.43;;
64487;SDS011;50864;45.050;39.014;2023-06-10T08:08:21;10.98;;;4.30;;
64487;SDS011;50864;45.050;39.014;2023-06-10T08:10:47;14.52;;;4.70;;
64487;SDS011;50864;45.050;39.014;2023-06-10T08:13:14;16.65;;;4.60;;
64487;SDS011;50864;45.050;39.014;2023-06-10T08:15:40;10.85;;;4.18;;
64487;SDS011;50864;45.050;39.014;2023-06-10T08:18:06;19.12;;;5.10;;
64487;SDS011;50864;45.050;39.014;2023-06-10T08:20:31;14.25;;;4.43;;
64487;SDS011;50864;45.050;39.014;2023-06-10T08:22:57;15.00;;;5.10;;
64487;SDS011;50864;45.050;39.014;2023-06-10T08:25:23;18.95;;;4.70;;
64487;SDS011;50864;45.050;39.014;2023-06-10T08:27:49;13.85;;;4.82;;
64487;SDS011;50864;45.050;39.014;2023-06-10T08:30:16;18.12;;;5.25;;
64487;SDS011;50864;45.050;39.014;2023-06-10T08:32:42;13.43;;;5.93;;
64487;SDS011;50864;45.050;39.014;2023-06-10T08:35:08;17.27;;;4.32;;
64487;SDS011;50864;45.050;39.014;2023-06-10T08:37:34;15.77;;;4.40;;
64487;SDS011;50864;45.050;39.014;2023-06-10T08:40:00;12.57;;;4.60;;
64487;SDS011;50864;45.050;39.014;2023-06-10T08:42:33;12.63;;;4.57;;
64487;SDS011;50864;45.050;39.014;2023-06-10T08:45:00;10.73;;;4.07;;
64487;SDS011;50864;45.050;39.014;2023-06-10T08:47:26;15.00;;;4.40;;
64487;SDS011;50864;45.050;39.014;2023-06-10T08:49:54;14.87;;;4.20;;
64487;SDS011;50864;45.050;39.014;2023-06-10T08:52:22;17.20;;;6.05;;
64487;SDS011;50864;45.050;39.014;2023-06-10T08:54:52;14.75;;;4.30;;
64487;SDS011;50864;45.050;39.014;2023-06-10T08:57:18;17.67;;;5.05;;
64487;SDS011;50864;45.050;39.014;2023-06-10T08:59:46;11.65;;;4.55;;
64487;SDS011;50864;45.050;39.014;2023-06-10T09:02:12;13.40;;;4.35;;
64487;SDS011;50864;45.050;39.014;2023-06-10T09:04:38;10.77;;;4.43;;
64487;SDS011;50864;45.050;39.014;2023-06-10T09:07:04;11.82;;;4.43;;
64487;SDS011;50864;45.050;39.014;2023-06-10T09:09:31;10.27;;;4.45;;
64487;SDS011;50864;45.050;39.014;2023-06-10T09:11:58;13.73;;;4.93;;
64487;SDS011;50864;45.050;39.014;2023-06-10T09:14:23;13.13;;;4.57;;
64487;SDS011;50864;45.050;39.014;2023-06-10T09:16:50;14.02;;;4.57;;
64487;SDS011;50864;45.050;39.014;2023-06-10T09:19:16;10.82;;;4.47;;
64487;SDS011;50864;45.050;39.014;2023-06-10T09:21:41;16.37;;;5.05;;
64487;SDS011;50864;45.050;39.014;2023-06-10T09:24:07;10.40;;;4.47;;
64487;SDS011;50864;45.050;39.014;2023-06-10T09:26:33;17.45;;;5.50;;
64487;SDS011;50864;45.050;39.014;2023-06-10T09:29:07;13.82;;;4.25;;
64487;SDS011;50864;45.050;39.014;2023-06-10T09:31:34;12.73;;;4.90;;
64487;SDS011;50864;45.050;39.014;2023-06-10T09:34:07;12.95;;;4.72;;
64487;SDS011;50864;45.050;39.014;2023-06-10T09:36:33;12.60;;;5.12;;
64487;SDS011;50864;45.050;39.014;2023-06-10T09:39:00;11.55;;;5.20;;
64487;SDS011;50864;45.050;39.014;2023-06-10T09:41:35;11.75;;;4.72;;
64487;SDS011;50864;45.050;39.014;2023-06-10T09:44:01;11.77;;;4.90;;
64487;SDS011;50864;45.050;39.014;2023-06-10T09:46:31;12.05;;;5.12;;
64487;SDS011;50864;45.050;39.014;2023-06-10T09:51:26;12.25;;;6.87;;
64487;SDS011;50864;45.050;39.014;2023-06-10T09:53:51;12.95;;;5.68;;
64487;SDS011;50864;45.050;39.014;2023-06-10T09:56:18;12.35;;;4.53;;
64487;SDS011;50864;45.050;39.014;2023-06-10T09:58:44;12.65;;;4.32;;
64487;SDS011;50864;45.050;39.014;2023-06-10T10:01:12;11.18;;;4.32;;
64487;SDS011;50864;45.050;39.014;2023-06-10T10:03:49;17.35;;;4.70;;
64487;SDS011;50864;45.050;39.014;2023-06-10T10:06:15;12.93;;;4.15;;
64487;SDS011;50864;45.050;39.014;2023-06-10T10:08:41;16.75;;;4.28;;
64487;SDS011;50864;45.050;39.014;2023-06-10T10:11:07;17.42;;;4.90;;
64487;SDS011;50864;45.050;39.014;2023-06-10T10:13:33;12.95;;;5.10;;
64487;SDS011;50864;45.050;39.014;2023-06-10T10:16:09;10.77;;;4.55;;
64487;SDS011;50864;45.050;39.014;2023-06-10T10:18:36;10.25;;;4.05;;
64487;SDS011;50864;45.050;39.014;2023-06-10T10:21:05;16.73;;;4.95;;
64487;SDS011;50864;45.050;39.014;2023-06-10T10:23:37;18.83;;;5.00;;
64487;SDS011;50864;45.050;39.014;2023-06-10T10:26:05;19.37;;;5.37;;
64487;SDS011;50864;45.050;39.014;2023-06-10T10:28:37;15.50;;;5.12;;
64487;SDS011;50864;45.050;39.014;2023-06-10T10:31:08;16.80;;;5.07;;
64487;SDS011;50864;45.050;39.014;2023-06-10T10:33:42;14.13;;;4.85;;
64487;SDS011;50864;45.050;39.014;2023-06-10T10:36:11;12.45;;;5.18;;
64487;SDS011;50864;45.050;39.014;2023-06-10T10:38:37;9.18;;;4.90;;
64487;SDS011;50864;45.050;39.014;2023-06-10T10:41:03;39.03;;;8.27;;
64487;SDS011;50864;45.050;39.014;2023-06-10T10:43:30;16.62;;;5.47;;
64487;SDS011;50864;45.050;39.014;2023-06-10T10:45:59;13.95;;;5.00;;
64487;SDS011;50864;45.050;39.014;2023-06-10T10:48:25;12.35;;;4.60;;
64487;SDS011;50864;45.050;39.014;2023-06-10T10:50:58;15.15;;;4.65;;
64487;SDS011;50864;45.050;39.014;2023-06-10T10:53:24;16.40;;;5.43;;
64487;SDS011;50864;45.050;39.014;2023-06-10T10:56:07;11.05;;;5.00;;
64487;SDS011;50864;45.050;39.014;2023-06-10T10:58:33;12.18;;;5.07;;
64487;SDS011;50864;45.050;39.014;2023-06-10T11:00:59;16.17;;;5.10;;
64487;SDS011;50864;45.050;39.014;2023-06-10T11:03:28;10.25;;;5.68;;
64487;SDS011;50864;45.050;39.014;2023-06-10T11:05:59;11.23;;;5.28;;
64487;SDS011;50864;45.050;39.014;2023-06-10T11:13:22;16.35;;;5.03;;
64487;SDS011;50864;45.050;39.014;2023-06-10T11:15:48;12.82;;;5.22;;
64487;SDS011;50864;45.050;39.014;2023-06-10T11:18:34;10.43;;;4.85;;
64487;SDS011;50864;45.050;39.014;2023-06-10T11:21:02;14.32;;;4.45;;
64487;SDS011;50864;45.050;39.014;2023-06-10T11:28:39;9.05;;;4.20;;
64487;SDS011;50864;45.050;39.014;2023-06-10T11:31:04;13.38;;;4.68;;
64487;SDS011;50864;45.050;39.014;2023-06-10T11:33:30;11.35;;;4.90;;
64487;SDS011;50864;45.050;39.014;2023-06-10T11:35:56;11.98;;;5.85;;
64487;SDS011;50864;45.050;39.014;2023-06-10T11:38:24;14.90;;;4.07;;
64487;SDS011;50864;45.050;39.014;2023-06-10T11:40:50;12.52;;;4.22;;
64487;SDS011;50864;45.050;39.014;2023-06-10T11:43:19;9.95;;;4.43;;
64487;SDS011;50864;45.050;39.014;2023-06-10T11:45:45;15.50;;;5.47;;
64487;SDS011;50864;45.050;39.014;2023-06-10T11:48:12;15.00;;;7.00;;
64487;SDS011;50864;45.050;39.014;2023-06-10T11:50:40;10.15;;;5.18;;
64487;SDS011;50864;45.050;39.014;2023-06-10T11:53:07;12.68;;;5.00;;
64487;SDS011;50864;45.050;39.014;2023-06-10T11:55:42;15.95;;;5.30;;
64487;SDS011;50864;45.050;39.014;2023-06-10T11:58:27;15.13;;;6.22;;
64487;SDS011;50864;45.050;39.014;2023-06-10T12:00:53;10.90;;;5.70;;
64487;SDS011;50864;45.050;39.014;2023-06-10T12:03:20;14.30;;;8.02;;
64487;SDS011;50864;45.050;39.014;2023-06-10T12:08:20;9.82;;;3.67;;
64487;SDS011;50864;45.050;39.014;2023-06-10T12:10:46;11.60;;;4.72;;
64487;SDS011;50864;45.050;39.014;2023-06-10T12:13:12;9.57;;;3.58;;
64487;SDS011;50864;45.050;39.014;2023-06-10T12:15:38;10.05;;;3.90;;
64487;SDS011;50864;45.050;39.014;2023-06-10T12:18:04;10.05;;;3.83;;
64487;SDS011;50864;45.050;39.014;2023-06-10T12:20:31;10.10;;;3.42;;
64487;SDS011;50864;45.050;39.014;2023-06-10T12:23:00;6.78;;;3.20;;
64487;SDS011;50864;45.050;39.014;2023-06-10T12:25:33;9.18;;;3.87;;
64487;SDS011;50864;45.050;39.014;2023-06-10T12:27:59;6.25;;;3.65;;
64487;SDS011;50864;45.050;39.014;2023-06-10T12:30:26;9.45;;;3.72;;
64487;SDS011;50864;45.050;39.014;2023-06-10T12:32:52;26.40;;;5.37;;
64487;SDS011;50864;45.050;39.014;2023-06-10T12:35:25;10.50;;;4.35;;
64487;SDS011;50864;45.050;39.014;2023-06-10T12:37:59;11.63;;;3.97;;
64487;SDS011;50864;45.050;39.014;2023-06-10T12:40:30;13.55;;;4.00;;
64487;SDS011;50864;45.050;39.014;2023-06-10T12:42:56;11.00;;;5.10;;
64487;SDS011;50864;45.050;39.014;2023-06-10T12:45:29;10.52;;;4.07;;
64487;SDS011;50864;45.050;39.014;2023-06-10T12:50:40;10.98;;;5.28;;
64487;SDS011;50864;45.050;39.014;2023-06-10T12:53:07;12.13;;;4.07;;
64487;SDS011;50864;45.050;39.014;2023-06-10T12:55:33;7.10;;;3.55;;
64487;SDS011;50864;45.050;39.014;2023-06-10T12:57:59;7.60;;;3.28;;
64487;SDS011;50864;45.050;39.014;2023-06-10T13:03:40;8.50;;;3.67;;
64487;SDS011;50864;45.050;39.014;2023-06-10T13:06:06;7.03;;;3.45;;
64487;SDS011;50864;45.050;39.014;2023-06-10T13:08:32;9.20;;;3.70;;
64487;SDS011;50864;45.050;39.014;2023-06-10T13:10:58;7.43;;;4.03;;
64487;SDS011;50864;45.050;39.014;2023-06-10T13:13:24;8.73;;;3.83;;
64487;SDS011;50864;45.050;39.014;2023-06-10T13:15:51;9.10;;;3.95;;
64487;SDS011;50864;45.050;39.014;2023-06-10T13:18:17;14.18;;;4.37;;
64487;SDS011;50864;45.050;39.014;2023-06-10T13:20:46;12.93;;;4.65;;
64487;SDS011;50864;45.050;39.014;2023-06-10T13:23:11;15.27;;;4.50;;
64487;SDS011;50864;45.050;39.014;2023-06-10T13:25:37;16.98;;;5.07;;
64487;SDS011;50864;45.050;39.014;2023-06-10T13:28:03;15.13;;;4.00;;
64487;SDS011;50864;45.050;39.014;2023-06-10T13:30:29;12.70;;;3.67;;
64487;SDS011;50864;45.050;39.014;2023-06-10T13:32:55;13.02;;;3.60;;
64487;SDS011;50864;45.050;39.014;2023-06-10T13:35:21;12.60;;;3.55;;
64487;SDS011;50864;45.050;39.014;2023-06-10T13:37:46;8.68;;;3.90;;
64487;SDS011;50864;45.050;39.014;2023-06-10T13:40:12;12.52;;;4.32;;
64487;SDS011;50864;45.050;39.014;2023-06-10T13:42:38;9.32;;;4.45;;
64487;SDS011;50864;45.050;39.014;2023-06-10T13:45:04;13.52;;;5.62;;
64487;SDS011;50864;45.050;39.014;2023-06-10T13:47:30;13.82;;;5.50;;
64487;SDS011;50864;45.050;39.014;2023-06-10T13:49:56;11.98;;;5.18;;
64487;SDS011;50864;45.050;39.014;2023-06-10T13:52:22;31.92;;;11.80;;
64487;SDS011;50864;45.050;39.014;2023-06-10T13:54:47;23.08;;;10.05;;
64487;SDS011;50864;45.050;39.014;2023-06-10T13:57:13;26.15;;;7.97;;
64487;SDS011;50864;45.050;39.014;2023-06-10T13:59:39;25.55;;;14.90;;
64487;SDS011;50864;45.050;39.014;2023-06-10T14:02:05;50.25;;;30.92;;
64487;SDS011;50864;45.050;39.014;2023-06-10T14:04:31;44.53;;;30.60;;
64487;SDS011;50864;45.050;39.014;2023-06-10T14:06:56;25.08;;;14.85;;
64487;SDS011;50864;45.050;39.014;2023-06-10T14:09:22;37.92;;;22.37;;
64487;SDS011;50864;45.050;39.014;2023-06-10T14:11:48;18.60;;;8.93;;
64487;SDS011;50864;45.050;39.014;2023-06-10T14:14:14;21.90;;;11.05;;
64487;SDS011;50864;45.050;39.014;2023-06-10T14:16:40;13.10;;;7.57;;
64487;SDS011;50864;45.050;39.014;2023-06-10T14:19:06;14.90;;;7.12;;
64487;SDS011;50864;45.050;39.014;2023-06-10T14:21:32;10.38;;;7.03;;
64487;SDS011;50864;45.050;39.014;2023-06-10T14:23:57;20.23;;;11.02;;
64487;SDS011;50864;45.050;39.014;2023-06-10T14:26:23;20.67;;;13.00;;
64487;SDS011;50864;45.050;39.014;2023-06-10T14:28:49;18.40;;;10.27;;
64487;SDS011;50864;45.050;39.014;2023-06-10T14:31:16;18.23;;;9.02;;
64487;SDS011;50864;45.050;39.014;2023-06-10T14:33:42;19.83;;;9.25;;
64487;SDS011;50864;45.050;39.014;2023-06-10T14:36:09;16.73;;;9.05;;
64487;SDS011;50864;45.050;39.014;2023-06-10T14:38:35;16.40;;;8.98;;
64487;SDS011;50864;45.050;39.014;2023-06-10T14:41:01;16.67;;;8.32;;
64487;SDS011;50864;45.050;39.014;2023-06-10T14:43:27;20.65;;;10.00;;